ADDS METAR Data

Data at: 0533 UTC 19 Jan 2018

METAR for:KMTP (Montauk Arpt, NY, US)
Text:KMTP 190454Z AUTO 31011G19KT M02/M08 A3001 RMK AO1 SLP160 T10171078 400221039
Temperature: -1.7°C ( 29°F)
Dewpoint: -7.8°C ( 18°F) [RH = 63%]
Pressure (altimeter):30.01 inches Hg (1016.3 mb) [Sea level pressure: 1016.0 mb]
Winds:from the NW (310 degrees) at 13 MPH (11 knots; 5.7 m/s) gusting to 22 MPH (19 knots; 9.8 m/s)
QC Flag:automated observation with no human augmentation